createdAt,value
2018-08-07T00:00:45.418Z,1.57
2018-08-07T00:03:13.522Z,1.87
2018-08-07T00:05:41.626Z,1.23
2018-08-07T00:08:09.734Z,1.90
2018-08-07T00:10:37.844Z,1.80
2018-08-07T00:13:05.992Z,1.60
2018-08-07T00:15:34.095Z,1.73
2018-08-07T00:18:02.199Z,1.50
2018-08-07T00:20:30.320Z,1.87
2018-08-07T00:22:58.535Z,1.50
2018-08-07T00:25:26.647Z,1.97
2018-08-07T00:27:54.758Z,1.60
2018-08-07T00:30:22.872Z,1.70
2018-08-07T00:32:51.013Z,2.10
2018-08-07T00:35:19.981Z,1.97
2018-08-07T00:37:48.661Z,1.87
2018-08-07T00:40:17.691Z,2.03
2018-08-07T00:42:46.330Z,2.13
2018-08-07T00:45:19.608Z,1.97
2018-08-07T00:47:47.848Z,2.23
2018-08-07T00:50:18.341Z,1.83
2018-08-07T00:52:47.332Z,1.90
2018-08-07T00:55:16.134Z,1.80
2018-08-07T00:57:44.347Z,1.60
2018-08-07T01:00:13.336Z,1.60
2018-08-07T01:02:41.517Z,1.83
2018-08-07T01:05:11.695Z,1.90
2018-08-07T01:07:40.029Z,1.60
2018-08-07T01:10:10.100Z,1.90
2018-08-07T01:12:38.580Z,2.10
2018-08-07T01:15:08.835Z,2.20
2018-08-07T01:17:36.983Z,1.70
2018-08-07T01:20:13.341Z,1.87
2018-08-07T01:22:42.103Z,2.03
2018-08-07T01:25:21.360Z,2.10
2018-08-07T01:27:49.534Z,2.40
2018-08-07T01:30:21.404Z,2.13
2018-08-07T01:32:49.500Z,2.00
2018-08-07T01:35:17.612Z,1.80
2018-08-07T01:37:45.733Z,1.70
2018-08-07T01:40:13.837Z,2.70
2018-08-07T01:42:42.274Z,1.50
2018-08-07T01:45:10.874Z,1.77
2018-08-07T01:47:39.238Z,1.70
2018-08-07T01:50:09.286Z,2.10
2018-08-07T01:52:37.257Z,2.40
2018-08-07T01:55:06.792Z,1.60
2018-08-07T01:57:34.907Z,2.10
2018-08-07T02:00:03.262Z,1.83
2018-08-07T02:02:31.360Z,1.80
2018-08-07T02:04:59.473Z,1.60
2018-08-07T02:07:27.571Z,1.93
2018-08-07T02:09:55.674Z,1.90
2018-08-07T02:12:23.768Z,1.80
2018-08-07T02:14:51.864Z,2.20
2018-08-07T02:17:19.966Z,1.70
2018-08-07T02:19:48.055Z,2.17
2018-08-07T02:22:16.158Z,1.80
2018-08-07T02:24:44.327Z,1.97
2018-08-07T02:27:12.438Z,2.10
2018-08-07T02:29:40.617Z,2.13
2018-08-07T02:32:08.726Z,1.80
2018-08-07T02:34:36.847Z,1.63
2018-08-07T02:37:05.185Z,2.10
2018-08-07T02:39:33.271Z,1.90
2018-08-07T02:42:01.388Z,2.20
2018-08-07T02:44:29.486Z,1.93
2018-08-07T02:46:57.640Z,1.97
2018-08-07T02:49:25.734Z,2.33
2018-08-07T02:51:53.836Z,2.00
2018-08-07T02:54:21.931Z,2.47
2018-08-07T02:56:49.901Z,2.20
2018-08-07T02:59:18.010Z,1.90
2018-08-07T03:01:46.113Z,2.07
2018-08-07T03:04:14.233Z,2.10
2018-08-07T03:06:42.359Z,1.97
2018-08-07T03:09:11.287Z,2.00
2018-08-07T03:11:39.466Z,2.10
2018-08-07T03:14:07.828Z,1.90
2018-08-07T03:16:36.023Z,2.00
2018-08-07T03:19:04.219Z,1.80
2018-08-07T03:21:32.350Z,2.10
2018-08-07T03:24:00.461Z,2.33
2018-08-07T03:26:28.568Z,2.07
2018-08-07T03:28:56.662Z,1.60
2018-08-07T03:31:24.763Z,1.87
2018-08-07T03:33:52.853Z,1.93
2018-08-07T03:36:20.946Z,1.90
2018-08-07T03:38:49.058Z,2.07
2018-08-07T03:41:17.170Z,2.03
2018-08-07T03:43:45.326Z,2.20
2018-08-07T03:46:13.426Z,2.10
2018-08-07T03:48:41.547Z,3.00
2018-08-07T03:51:09.644Z,2.07
2018-08-07T03:53:37.730Z,1.80
2018-08-07T03:56:05.830Z,2.00
2018-08-07T03:58:33.942Z,1.97
2018-08-07T04:01:02.499Z,2.10
2018-08-07T04:06:23.416Z,2.93
2018-08-07T04:08:51.593Z,2.30
2018-08-07T04:11:19.690Z,2.20
2018-08-07T04:13:47.823Z,2.63
2018-08-07T04:16:15.918Z,2.60
2018-08-07T04:18:44.045Z,2.50
2018-08-07T04:21:11.939Z,2.37
2018-08-07T04:23:40.044Z,2.70
2018-08-07T04:26:08.170Z,2.47
2018-08-07T04:28:36.255Z,2.20
2018-08-07T04:31:04.369Z,2.20
2018-08-07T04:33:32.474Z,2.20
2018-08-07T04:36:00.594Z,2.70
2018-08-07T04:38:28.723Z,2.70
2018-08-07T04:40:56.836Z,2.40
2018-08-07T04:43:24.952Z,2.67
2018-08-07T04:45:53.048Z,2.33
2018-08-07T04:48:21.135Z,2.30
2018-08-07T04:50:49.237Z,2.10
2018-08-07T04:53:17.448Z,2.77
2018-08-07T04:55:45.540Z,2.80
2018-08-07T04:58:13.672Z,1.80
2018-08-07T05:00:41.776Z,2.33
2018-08-07T05:03:09.877Z,1.90
2018-08-07T05:05:37.982Z,3.10
2018-08-07T05:08:06.089Z,1.93
2018-08-07T05:10:34.267Z,2.30
2018-08-07T05:13:02.325Z,1.93
2018-08-07T05:15:30.416Z,1.90
2018-08-07T05:17:58.516Z,1.73
2018-08-07T05:20:26.616Z,2.67
2018-08-07T05:22:54.719Z,2.20
2018-08-07T05:25:22.831Z,2.87
2018-08-07T05:27:51.463Z,1.80
2018-08-07T05:30:20.799Z,2.00
2018-08-07T05:32:48.903Z,2.30
2018-08-07T05:35:17.000Z,2.33
2018-08-07T05:37:45.195Z,2.23
2018-08-07T05:40:13.271Z,2.30
2018-08-07T05:42:41.823Z,2.17
2018-08-07T05:45:11.680Z,1.93
2018-08-07T05:47:39.806Z,2.50
2018-08-07T05:50:12.514Z,2.30
2018-08-07T05:52:40.533Z,2.33
2018-08-07T05:55:09.042Z,2.23
2018-08-07T05:57:37.144Z,2.30
2018-08-07T06:00:09.216Z,3.43
2018-08-07T06:02:37.338Z,2.30
2018-08-07T06:05:06.279Z,1.80
2018-08-07T06:07:34.399Z,2.13
2018-08-07T06:10:02.520Z,2.00
2018-08-07T06:12:30.637Z,2.30
2018-08-07T06:14:58.758Z,2.00
2018-08-07T06:17:26.887Z,2.20
2018-08-07T06:19:55.053Z,2.20
2018-08-07T06:22:23.131Z,2.40
2018-08-07T06:24:51.255Z,2.30
2018-08-07T06:27:19.354Z,1.90
2018-08-07T06:29:47.537Z,2.33
2018-08-07T06:32:15.645Z,2.20
2018-08-07T06:34:43.735Z,2.00
2018-08-07T06:37:11.853Z,2.03
2018-08-07T06:39:39.974Z,2.70
2018-08-07T06:42:08.070Z,2.70
2018-08-07T06:44:36.182Z,2.47
2018-08-07T06:47:04.319Z,2.57
2018-08-07T06:49:32.427Z,2.43
2018-08-07T06:52:00.520Z,2.37
2018-08-07T06:54:28.636Z,1.97
2018-08-07T06:56:56.753Z,2.07
2018-08-07T06:59:24.922Z,2.10
2018-08-07T07:01:53.000Z,2.80
2018-08-07T07:04:21.127Z,2.63
2018-08-07T07:06:49.231Z,2.40
2018-08-07T07:09:17.340Z,2.60
2018-08-07T07:11:45.430Z,2.87
2018-08-07T07:14:13.546Z,2.40
2018-08-07T07:16:41.666Z,2.37
2018-08-07T07:19:09.851Z,2.10
2018-08-07T07:21:38.055Z,2.17
2018-08-07T07:24:06.724Z,2.87
2018-08-07T07:26:34.833Z,2.67
2018-08-07T07:29:02.966Z,2.63
2018-08-07T07:31:31.052Z,2.23
2018-08-07T07:33:59.184Z,2.00
2018-08-07T07:36:27.294Z,2.20
2018-08-07T07:38:55.413Z,2.77
2018-08-07T07:41:23.532Z,3.10
2018-08-07T07:43:51.631Z,3.10
2018-08-07T07:46:19.756Z,2.00
2018-08-07T07:48:48.057Z,4.33
2018-08-07T07:51:16.212Z,2.00
2018-08-07T07:53:44.350Z,3.00
2018-08-07T07:56:12.482Z,1.90
2018-08-07T07:58:40.635Z,2.77
2018-08-07T08:01:09.238Z,2.53
2018-08-07T08:03:37.325Z,2.20
2018-08-07T08:06:05.465Z,2.50
2018-08-07T08:08:33.532Z,2.50
2018-08-07T08:11:01.650Z,2.50
2018-08-07T08:13:29.737Z,2.93
2018-08-07T08:15:57.830Z,2.77
2018-08-07T08:18:26.006Z,1.83
2018-08-07T08:20:54.115Z,2.53
2018-08-07T08:23:22.231Z,2.63
2018-08-07T08:25:50.338Z,2.83
2018-08-07T08:28:18.428Z,2.83
2018-08-07T08:30:46.560Z,2.60
2018-08-07T08:33:20.804Z,1.90
2018-08-07T08:35:48.941Z,2.60
2018-08-07T08:38:17.010Z,2.73
2018-08-07T08:40:45.259Z,2.50
2018-08-07T08:43:13.346Z,2.43
2018-08-07T08:45:41.459Z,2.30
2018-08-07T08:48:09.616Z,2.40
2018-08-07T08:50:37.684Z,2.90
2018-08-07T08:53:05.788Z,2.80
2018-08-07T08:55:33.883Z,2.30
2018-08-07T08:58:02.001Z,2.60
2018-08-07T09:00:30.971Z,2.50
2018-08-07T09:03:00.514Z,2.47
2018-08-07T09:05:28.646Z,2.90
2018-08-07T09:07:56.736Z,2.20
2018-08-07T09:10:27.529Z,2.20
2018-08-07T09:12:56.240Z,3.00
2018-08-07T09:15:24.368Z,2.17
2018-08-07T09:17:52.456Z,2.37
2018-08-07T09:20:23.384Z,3.10
2018-08-07T09:22:51.503Z,2.50
2018-08-07T09:25:20.394Z,3.00
2018-08-07T09:27:48.443Z,2.53
2018-08-07T09:30:19.616Z,3.80
2018-08-07T09:32:48.883Z,3.40
2018-08-07T09:35:17.791Z,3.17
2018-08-07T09:37:46.305Z,3.40
2018-08-07T09:40:15.452Z,3.07
2018-08-07T09:42:44.795Z,3.77
2018-08-07T09:45:15.399Z,3.10
2018-08-07T09:47:44.159Z,3.83
2018-08-07T09:50:13.292Z,3.60
2018-08-07T09:52:41.384Z,3.00
2018-08-07T09:55:09.951Z,3.40
2018-08-07T09:57:38.088Z,3.97
2018-08-07T10:00:23.928Z,3.10
2018-08-07T10:02:54.148Z,3.90
2018-08-07T10:05:23.811Z,4.23
2018-08-07T10:07:51.849Z,4.50
2018-08-07T10:10:20.313Z,3.57
2018-08-07T10:12:48.530Z,3.90
2018-08-07T10:15:17.063Z,4.00
2018-08-07T10:17:45.232Z,4.97
2018-08-07T10:20:13.987Z,4.60
2018-08-07T10:22:42.375Z,5.47
2018-08-07T10:25:12.724Z,4.50
2018-08-07T10:27:43.030Z,5.50
2018-08-07T10:30:13.011Z,5.37
2018-08-07T10:32:41.903Z,5.50
2018-08-07T10:35:10.965Z,5.50
2018-08-07T10:37:39.032Z,5.47
2018-08-07T10:40:11.028Z,6.13
2018-08-07T10:42:39.131Z,5.53
2018-08-07T10:45:09.803Z,6.30
2018-08-07T10:47:38.148Z,5.77
2018-08-07T10:50:13.528Z,4.90
2018-08-07T10:52:41.640Z,5.23
2018-08-07T10:55:09.837Z,5.43
2018-08-07T10:57:39.032Z,4.93
2018-08-07T11:00:12.429Z,5.27
2018-08-07T11:02:40.523Z,5.60
2018-08-07T11:05:09.027Z,5.40
2018-08-07T11:07:37.129Z,6.40
2018-08-07T11:10:06.479Z,5.80
2018-08-07T11:12:34.581Z,6.10
2018-08-07T11:15:02.719Z,6.40
2018-08-07T11:17:31.032Z,4.83
2018-08-07T11:19:59.156Z,5.40
2018-08-07T11:22:27.253Z,6.40
2018-08-07T11:24:55.382Z,6.10
2018-08-07T11:27:23.650Z,5.23
2018-08-07T11:29:51.768Z,5.87
2018-08-07T11:32:19.886Z,5.80
2018-08-07T11:34:47.966Z,5.67
2018-08-07T11:37:16.076Z,5.53
2018-08-07T11:39:44.189Z,5.60
2018-08-07T11:42:12.309Z,5.20
2018-08-07T11:44:40.429Z,5.20
2018-08-07T11:47:09.249Z,5.60
2018-08-07T11:49:37.348Z,5.37
2018-08-07T11:52:05.689Z,5.57
2018-08-07T11:54:33.824Z,5.73
2018-08-07T11:57:02.347Z,6.20
2018-08-07T11:59:30.474Z,5.30
2018-08-07T12:01:58.637Z,5.80
2018-08-07T12:04:26.669Z,5.03
2018-08-07T12:06:54.860Z,5.00
2018-08-07T12:09:23.197Z,5.13
2018-08-07T12:11:51.291Z,5.20
2018-08-07T12:14:19.385Z,4.97
2018-08-07T12:16:47.497Z,4.63
2018-08-07T12:19:15.601Z,5.30
2018-08-07T12:21:43.769Z,4.73
2018-08-07T12:24:11.832Z,4.93
2018-08-07T12:26:39.912Z,5.27
2018-08-07T12:29:08.003Z,4.80
2018-08-07T12:31:36.687Z,4.80
2018-08-07T12:34:04.788Z,5.27
2018-08-07T12:36:32.893Z,4.73
2018-08-07T12:39:00.995Z,4.50
2018-08-07T12:41:29.107Z,4.37
2018-08-07T12:43:57.220Z,4.70
2018-08-07T12:46:25.384Z,5.20
2018-08-07T12:48:53.466Z,5.20
2018-08-07T12:51:21.559Z,5.13
2018-08-07T12:53:49.667Z,5.27
2018-08-07T12:56:17.751Z,5.30
2018-08-07T12:58:45.876Z,5.43
2018-08-07T13:01:13.991Z,5.30
2018-08-07T13:03:42.100Z,5.90
2018-08-07T13:06:10.210Z,5.30
2018-08-07T13:08:38.322Z,4.97
2018-08-07T13:11:06.428Z,4.80
2018-08-07T13:13:34.530Z,5.40
2018-08-07T13:16:02.619Z,4.73
2018-08-07T13:18:30.794Z,4.90
2018-08-07T13:20:58.930Z,4.70
2018-08-07T13:23:27.040Z,4.57
2018-08-07T13:25:55.208Z,4.27
2018-08-07T13:28:23.237Z,3.70
2018-08-07T13:30:51.341Z,4.47
2018-08-07T13:33:19.431Z,4.30
2018-08-07T13:35:47.570Z,3.70
2018-08-07T13:38:15.696Z,3.60
2018-08-07T13:40:43.822Z,3.80
2018-08-07T13:43:11.990Z,4.47
2018-08-07T13:45:40.091Z,4.47
2018-08-07T13:48:08.206Z,4.53
2018-08-07T13:50:36.360Z,4.30
2018-08-07T13:53:04.459Z,4.33
2018-08-07T13:55:32.361Z,4.10
2018-08-07T13:58:00.462Z,4.10
2018-08-07T14:00:29.076Z,4.53
2018-08-07T14:02:57.354Z,4.30
2018-08-07T14:05:26.185Z,3.77
2018-08-07T14:07:55.590Z,4.30
2018-08-07T14:10:24.836Z,3.80
2018-08-07T14:12:53.003Z,3.80
2018-08-07T14:15:22.358Z,4.60
2018-08-07T14:17:50.493Z,4.23
2018-08-07T14:20:18.968Z,4.10
2018-08-07T14:22:47.231Z,4.17
2018-08-07T14:25:17.646Z,4.27
2018-08-07T14:27:45.747Z,4.30
2018-08-07T14:30:19.034Z,4.70
2018-08-07T14:32:47.219Z,4.50
2018-08-07T14:35:15.308Z,4.50
2018-08-07T14:40:36.653Z,4.70
2018-08-07T14:43:04.763Z,4.23
2018-08-07T14:45:32.863Z,4.57
2018-08-07T14:48:00.961Z,4.83
2018-08-07T14:50:29.845Z,4.93
2018-08-07T14:52:57.958Z,4.70
2018-08-07T14:55:26.393Z,5.90
2018-08-07T14:57:54.605Z,5.60
2018-08-07T15:00:29.095Z,5.10
2018-08-07T15:02:57.138Z,5.13
2018-08-07T15:05:25.262Z,4.10
2018-08-07T15:07:53.360Z,5.57
2018-08-07T15:10:22.827Z,5.30
2018-08-07T15:12:50.955Z,5.50
2018-08-07T15:15:21.792Z,4.80
2018-08-07T15:17:49.891Z,4.73
2018-08-07T15:20:19.568Z,5.00
2018-08-07T15:22:48.913Z,5.70
2018-08-07T15:25:17.704Z,6.00
2018-08-07T15:27:45.824Z,5.10
2018-08-07T15:30:20.176Z,5.30
2018-08-07T15:32:49.006Z,5.20
2018-08-07T15:35:18.234Z,5.33
2018-08-07T15:37:46.555Z,5.03
2018-08-07T15:40:15.141Z,5.50
2018-08-07T15:42:43.836Z,5.63
2018-08-07T15:45:12.888Z,4.90
2018-08-07T15:47:40.987Z,6.20
2018-08-07T15:50:11.353Z,5.37
2018-08-07T15:52:40.116Z,5.90
2018-08-07T15:55:08.804Z,5.10
2018-08-07T15:57:36.924Z,5.77
2018-08-07T16:00:07.043Z,5.73
2018-08-07T16:02:35.149Z,5.00
2018-08-07T16:05:03.331Z,5.17
2018-08-07T16:07:31.919Z,5.87
2018-08-07T16:10:00.017Z,5.77
2018-08-07T16:12:28.148Z,5.30
2018-08-07T16:14:56.230Z,5.50
2018-08-07T16:17:24.326Z,5.90
2018-08-07T16:19:52.508Z,5.97
2018-08-07T16:22:20.645Z,5.53
2018-08-07T16:24:48.960Z,5.70
2018-08-07T16:27:17.068Z,5.10
2018-08-07T16:29:45.225Z,5.83
2018-08-07T16:32:13.296Z,5.90
2018-08-07T16:34:41.411Z,5.83
2018-08-07T16:37:09.527Z,5.67
2018-08-07T16:40:14.863Z,5.77
2018-08-07T16:42:43.007Z,5.40
2018-08-07T16:45:14.105Z,5.87
2018-08-07T16:47:42.315Z,5.03
2018-08-07T16:50:12.746Z,5.43
2018-08-07T16:52:40.886Z,5.67
2018-08-07T16:55:10.077Z,5.30
2018-08-07T16:57:38.202Z,5.47
2018-08-07T17:00:09.174Z,5.80
2018-08-07T17:02:37.560Z,6.50
2018-08-07T17:05:07.356Z,5.67
2018-08-07T17:07:35.493Z,5.70
2018-08-07T17:10:04.203Z,5.87
2018-08-07T17:12:32.317Z,6.53
2018-08-07T17:15:00.429Z,5.73
2018-08-07T17:17:28.524Z,5.93
2018-08-07T17:19:56.661Z,6.57
2018-08-07T17:22:24.807Z,5.97
2018-08-07T17:24:52.914Z,6.90
2018-08-07T17:27:21.113Z,5.70
2018-08-07T17:29:49.232Z,5.50
2018-08-07T17:32:17.367Z,5.30
2018-08-07T17:34:45.506Z,5.80
2018-08-07T17:37:13.651Z,5.73
2018-08-07T17:39:41.814Z,6.17
2018-08-07T17:42:09.969Z,5.83
2018-08-07T17:44:38.069Z,6.20
2018-08-07T17:47:06.233Z,5.60
2018-08-07T17:49:34.322Z,6.20
2018-08-07T17:52:02.631Z,6.20
2018-08-07T17:54:30.739Z,5.97
2018-08-07T17:56:59.048Z,5.63
2018-08-07T17:59:27.172Z,5.80
2018-08-07T18:01:55.250Z,6.40
2018-08-07T18:04:23.399Z,5.87
2018-08-07T18:06:51.561Z,6.03
2018-08-07T18:09:19.623Z,5.53
2018-08-07T18:11:47.715Z,6.20
2018-08-07T18:14:15.848Z,6.77
2018-08-07T18:16:43.956Z,6.20
2018-08-07T18:19:12.063Z,5.17
2018-08-07T18:21:40.177Z,5.70
2018-08-07T18:24:08.306Z,6.50
2018-08-07T18:26:36.419Z,6.60
2018-08-07T18:29:04.559Z,5.50
2018-08-07T18:31:32.675Z,5.93
2018-08-07T18:34:00.787Z,5.83
2018-08-07T18:36:28.894Z,6.17
2018-08-07T18:38:57.281Z,5.53
2018-08-07T18:41:25.259Z,5.23
2018-08-07T18:43:53.474Z,4.63
2018-08-07T18:46:21.589Z,5.30
2018-08-07T18:48:49.721Z,4.83
2018-08-07T18:51:17.889Z,5.17
2018-08-07T18:53:45.995Z,5.30
2018-08-07T18:56:14.103Z,5.50
2018-08-07T18:58:42.211Z,5.90
2018-08-07T19:01:10.342Z,5.50
2018-08-07T19:03:38.519Z,5.27
2018-08-07T19:06:06.598Z,5.40
2018-08-07T19:08:34.774Z,5.50
2018-08-07T19:11:02.862Z,5.57
2018-08-07T19:13:30.978Z,5.50
2018-08-07T19:15:59.117Z,5.63
2018-08-07T19:18:27.260Z,5.30
2018-08-07T19:20:55.459Z,5.73
2018-08-07T19:23:23.616Z,5.77
2018-08-07T19:25:52.881Z,5.80
2018-08-07T19:28:21.025Z,5.17
2018-08-07T19:30:49.117Z,4.93
2018-08-07T19:33:17.236Z,5.63
2018-08-07T19:35:45.341Z,5.10
2018-08-07T19:38:13.497Z,5.30
2018-08-07T19:40:41.632Z,6.20
2018-08-07T19:43:09.746Z,5.73
2018-08-07T19:45:37.882Z,5.70
2018-08-07T19:48:06.301Z,5.83
2018-08-07T19:50:34.410Z,7.13
2018-08-07T19:53:02.533Z,5.43
2018-08-07T19:55:30.640Z,6.07
2018-08-07T19:57:58.776Z,5.83
2018-08-07T20:00:27.905Z,5.40
2018-08-07T20:02:57.006Z,5.97
2018-08-07T20:05:25.206Z,6.07
2018-08-07T20:07:54.263Z,6.60
2018-08-07T20:10:22.656Z,6.40
2018-08-07T20:12:50.865Z,5.90
2018-08-07T20:15:20.842Z,6.00
2018-08-07T20:17:49.533Z,6.10
2018-08-07T20:20:17.949Z,5.70
2018-08-07T20:22:46.160Z,7.60
2018-08-07T20:25:14.265Z,6.40
2018-08-07T20:27:42.408Z,6.30
2018-08-07T20:30:13.477Z,6.47
2018-08-07T20:32:42.051Z,7.10
2018-08-07T20:35:10.476Z,6.87
2018-08-07T20:37:38.881Z,7.77
2018-08-07T20:40:14.284Z,13.93
2018-08-07T20:42:42.652Z,9.40
2018-08-07T20:45:11.116Z,9.40
2018-08-07T20:47:39.627Z,8.90
2018-08-07T20:50:13.744Z,8.93
2018-08-07T20:52:42.371Z,7.83
2018-08-07T20:55:10.565Z,8.33
2018-08-07T20:57:38.970Z,7.90
2018-08-07T21:00:09.048Z,7.50
2018-08-07T21:02:37.157Z,6.70
2018-08-07T21:05:05.383Z,7.90
2018-08-07T21:07:33.497Z,7.33
2018-08-07T21:10:01.619Z,7.40
2018-08-07T21:12:29.723Z,7.17
2018-08-07T21:14:57.872Z,7.40
2018-08-07T21:17:25.988Z,8.67
2018-08-07T21:19:54.113Z,7.50
2018-08-07T21:22:22.305Z,8.53
2018-08-07T21:27:43.780Z,7.80
2018-08-07T21:30:14.040Z,7.17
2018-08-07T21:32:42.177Z,8.10
2018-08-07T21:35:11.421Z,8.50
2018-08-07T21:37:40.294Z,7.30
2018-08-07T21:40:11.734Z,7.60
2018-08-07T21:42:40.234Z,7.80
2018-08-07T21:45:08.521Z,8.07
2018-08-07T21:47:37.194Z,8.07
2018-08-07T21:50:07.274Z,7.67
2018-08-07T21:52:35.376Z,8.73
2018-08-07T21:55:03.672Z,7.63
2018-08-07T21:57:31.813Z,8.50
2018-08-07T21:59:59.931Z,8.07
2018-08-07T22:02:28.051Z,8.07
2018-08-07T22:04:56.156Z,8.40
2018-08-07T22:07:24.293Z,8.73
2018-08-07T22:09:52.414Z,7.70
2018-08-07T22:12:20.545Z,8.17
2018-08-07T22:14:48.650Z,8.90
2018-08-07T22:17:16.763Z,8.53
2018-08-07T22:19:44.898Z,7.93
2018-08-07T22:22:13.008Z,8.33
2018-08-07T22:24:41.108Z,9.90
2018-08-07T22:27:09.240Z,9.30
2018-08-07T22:29:37.351Z,8.80
2018-08-07T22:32:05.464Z,8.43
2018-08-07T22:34:33.575Z,8.97
2018-08-07T22:37:01.709Z,9.00
2018-08-07T22:39:29.841Z,8.50
2018-08-07T22:41:57.958Z,7.60
2018-08-07T22:44:26.063Z,7.67
2018-08-07T22:46:54.169Z,7.87
2018-08-07T22:49:22.259Z,8.50
2018-08-07T22:51:50.387Z,7.60
2018-08-07T22:54:18.489Z,7.50
2018-08-07T22:56:46.607Z,7.60
2018-08-07T22:59:14.711Z,8.00
2018-08-07T23:01:42.927Z,8.30
2018-08-07T23:04:11.149Z,7.80
2018-08-07T23:06:39.362Z,8.10
2018-08-07T23:09:08.411Z,7.03
2018-08-07T23:11:36.547Z,8.40
2018-08-07T23:14:05.081Z,7.73
2018-08-07T23:16:33.220Z,8.00
2018-08-07T23:19:01.376Z,7.60
2018-08-07T23:21:29.494Z,7.80
2018-08-07T23:23:57.648Z,6.90
2018-08-07T23:26:25.767Z,7.90
2018-08-07T23:28:53.916Z,7.07
2018-08-07T23:31:22.128Z,7.40
2018-08-07T23:33:50.251Z,8.17
2018-08-07T23:36:18.433Z,7.40
2018-08-07T23:38:46.531Z,7.90
2018-08-07T23:41:14.695Z,7.53
2018-08-07T23:43:42.884Z,6.93
2018-08-07T23:46:11.011Z,6.43
2018-08-07T23:48:39.211Z,7.63
2018-08-07T23:51:07.331Z,7.33
2018-08-07T23:53:35.430Z,7.23
2018-08-07T23:56:03.564Z,7.53
2018-08-07T23:58:31.677Z,8.50
